Saturday, November 18, 2017, 12:04 PM GMT
Back to Local

CYCX, Gagetown Can-Mil

Location: , , Canada Lat: 45.833
Local Time: 12:04 PM GMT (12:04 GMT) Lon: -66.433
Time Zone: GMT Elev: 167 ft

Show me the last for .
Show Coded

Time T Td Feel RH Dir Speed Gust Alt SLP Vis Weather Sky Remarks
2017-11-18 11:00 27 18 16 68 280° 13 - 29.82 29.83 15 OVC022 None
2017-11-18 10:00 27 18 13 68 290° 10 21 29.78 29.79 15 OVC022 None
2017-11-18 09:00 27 18 13 68 280° 13 18 29.76 29.77 15 OVC022 None
2017-11-18 08:00 27 18 16 68 300° 13 - 29.75 29.75 15 BKN022 None
2017-11-18 07:00 27 18 15 68 290° 14 - 29.72 29.73 15 OVC022 None
2017-11-18 06:00 28 18 13 63 300° 23 29 29.72 29.73 15 OVC024 None
2017-11-18 05:00 28 19 13 68 300° 21 28 29.71 29.72 15 OVC024 None
2017-11-18 04:00 28 19 12 68 300° 21 31 29.70 29.71 15 OVC024 None
2017-11-18 03:00 30 19 14 63 300° 23 35 29.69 29.70 15 BKN024 None
2017-11-18 02:00 30 21 15 68 290° 24 31 29.66 29.67 15 BKN024 None
2017-11-18 01:00 32 23 19 68 290° 16 24 29.64 29.64 15 BKN024 None
2017-11-18 00:00 32 23 18 68 300° 24 30 29.61 29.62 15 BKN024 None
2017-11-17 23:00 32 23 17 68 290° 23 32 29.60 29.61 15 BKN022 None
2017-11-17 22:00 34 25 20 69 300° 23 30 29.58 29.59 15 OVC020 None
2017-11-17 21:00 34 27 20 74 280° 18 30 29.55 29.55 15 OVC020 None
2017-11-17 20:00 36 28 21 74 290° 26 36 29.51 29.52 15 OVC020 None
2017-11-17 19:00 37 30 24 74 300° 25 35 29.47 29.47 15 BKN018 OVC044 None
2017-11-17 18:28 37 32 25 80 290° 18 32 29.45 29.46 15 -DZ OVC020 None
2017-11-17 18:00 39 34 27 80 290° 21 31 29.43 29.44 15 BKN020 None
2017-11-17 17:00 39 34 28 80 300° 18 28 29.41 29.42 12 BKN018 OVC050 None
2017-11-17 16:00 39 36 28 86 300° 16 24 29.39 29.40 12 -SHRA OVC015 None
2017-11-17 15:00 39 36 28 86 300° 18 25 29.37 29.38 11 -DZ OVC013 None
2017-11-17 14:25 36 34 23 93 290° 15 25 29.36 29.37 10 -SHRA OVC008 None
2017-11-17 14:00 34 32 22 93 290° 16 23 29.35 29.35 4 -SHRASN OVC007 None
2017-11-17 13:20 36 34 23 93 290° 18 25 29.33 29.34 4 -SHRASN OVC006 None
2017-11-17 13:00 36 34 26 93 290° 16 - 29.32 29.33 6 -SHRA OVC008 None

Support USWX by starting your Amazon purchase here.